Time;durP1;ratioP1;P1;durP2;ratioP2;P2;SDS_P1;SDS_P2;PMS_P1;PMS_P2;Temp;Humidity;BMP_temperature;BMP_pressure;BME280_temperature;BME280_humidity;BME280_pressure;Samples;Min_cycle;Max_cycle;Signal;HPM_P1;HPM_P2
2022/03/22 00:01:14;;;;;;;;;26.25;22.75;;;;;12.02;64.58;102558.72;5055014;28;45332;-72
2022/03/22 00:03:40;;;;;;;;;31.50;25.25;;;;;11.99;64.34;102556.13;5054766;28;45861;-72
2022/03/22 00:06:06;;;;;;;;;32.00;26.00;;;;;11.96;64.02;102554.44;5053980;28;46091;-72
2022/03/22 00:08:32;;;;;;;;;35.25;27.25;;;;;11.96;64.12;102557.09;5055489;28;45340;-73
2022/03/22 00:10:58;;;;;;;;;30.25;21.75;;;;;11.98;64.08;102567.59;5054809;28;45346;-72
2022/03/22 00:13:23;;;;;;;;;30.50;22.75;;;;;11.97;64.27;102565.84;5054440;28;45432;-72
2022/03/22 00:15:50;;;;;;;;;25.50;24.50;;;;;11.95;64.16;102567.63;5053295;28;46111;-72
2022/03/22 00:18:18;;;;;;;;;26.25;23.50;;;;;11.95;64.03;102570.25;5041023;28;45938;-72
2022/03/22 00:20:43;;;;;;;;;20.75;18.25;;;;;11.94;64.13;102563.25;5038204;28;45404;-72
2022/03/22 00:23:09;;;;;;;;;31.00;24.25;;;;;11.92;63.99;102570.34;5042180;28;45468;-72
2022/03/22 00:25:34;;;;;;;;;24.50;20.75;;;;;11.89;64.15;102565.13;5042707;28;46492;-72
2022/03/22 00:28:01;;;;;;;;;23.00;18.75;;;;;11.86;64.12;102576.59;5043422;28;45373;-72
2022/03/22 00:30:31;;;;;;;;;23.25;19.75;;;;;11.84;64.17;102575.75;5042169;28;45479;-72
2022/03/22 00:33:00;;;;;;;;;32.00;24.00;;;;;11.83;64.17;102581.91;5038522;28;45452;-72
2022/03/22 00:35:28;;;;;;;;;31.25;28.00;;;;;11.81;63.92;102583.69;5039007;28;45474;-72
2022/03/22 00:37:56;;;;;;;;;27.75;23.00;;;;;11.79;64.52;102579.31;5042969;28;46244;-72
2022/03/22 00:40:24;;;;;;;;;28.25;21.00;;;;;11.75;64.33;102584.66;5043082;28;45430;-72
2022/03/22 00:42:53;;;;;;;;;29.00;21.00;;;;;11.73;64.49;102583.81;5042570;28;45432;-73
2022/03/22 00:45:21;;;;;;;;;29.75;23.75;;;;;11.70;64.66;102583.88;5039096;28;45549;-72
2022/03/22 00:47:49;;;;;;;;;33.00;25.00;;;;;11.69;64.87;102583.88;5057891;28;45371;-72
2022/03/22 00:50:17;;;;;;;;;29.00;20.25;;;;;11.64;64.39;102584.00;5054262;28;45273;-72
2022/03/22 00:52:43;;;;;;;;;30.00;23.75;;;;;11.63;64.56;102584.88;5074221;27;45540;-72
2022/03/22 00:55:11;;;;;;;;;26.00;22.25;;;;;11.60;64.44;102584.94;5053707;28;46293;-72
2022/03/22 00:57:37;;;;;;;;;26.50;22.75;;;;;11.56;64.89;102580.63;5053720;28;45427;-72
2022/03/22 01:00:05;;;;;;;;;23.50;21.50;;;;;11.55;63.93;102578.88;5054037;28;45503;-72
2022/03/22 01:02:35;;;;;;;;;28.00;19.00;;;;;11.53;64.45;102580.66;5038260;28;45361;-72
2022/03/22 01:05:03;;;;;;;;;21.50;16.75;;;;;11.52;64.28;102573.66;5041585;28;46403;-72
2022/03/22 01:07:29;;;;;;;;;25.50;23.25;;;;;11.50;64.28;102572.84;5042668;28;45735;-72
2022/03/22 01:09:55;;;;;;;;;26.75;20.75;;;;;11.49;64.48;102577.22;5042748;28;45490;-72
2022/03/22 01:12:20;;;;;;;;;23.75;20.00;;;;;11.47;64.26;102575.50;5040722;28;45472;-72
2022/03/22 01:14:46;;;;;;;;;25.25;18.75;;;;;11.43;64.30;102574.72;5037818;28;45395;-72
2022/03/22 01:17:11;;;;;;;;;26.75;20.50;;;;;11.42;64.16;102574.72;5053202;28;45574;-72
2022/03/22 01:19:38;;;;;;;;;23.25;20.50;;;;;11.38;64.30;102576.56;5047513;27;45504;-72
2022/03/22 01:22:05;;;;;;;;;24.00;20.75;;;;;11.35;64.46;102573.97;5050630;28;45454;-72
2022/03/22 01:24:31;;;;;;;;;22.50;17.50;;;;;11.34;64.76;102574.88;5053867;28;45327;-72
2022/03/22 01:26:56;;;;;;;;;26.25;23.00;;;;;11.30;64.87;102569.66;5053756;28;45444;-72
2022/03/22 01:29:21;;;;;;;;;21.67;17.67;;;;;11.27;64.68;102569.72;5039068;28;51978;-72
2022/03/22 01:31:49;;;;;;;;;23.00;19.25;;;;;11.20;64.87;102572.44;5042049;28;45410;-72
2022/03/22 01:34:15;;;;;;;;;22.00;19.25;;;;;11.20;64.54;102577.72;5042412;28;47063;-72
2022/03/22 01:36:40;;;;;;;;;27.50;21.25;;;;;11.18;64.85;102576.88;5042228;28;45301;-72
2022/03/22 01:39:05;;;;;;;;;20.75;18.25;;;;;11.15;64.40;102569.00;5038430;28;45726;-72
2022/03/22 01:41:31;;;;;;;;;19.25;19.00;;;;;11.13;64.53;102578.72;5038266;28;45381;-72
2022/03/22 01:43:56;;;;;;;;;31.50;21.25;;;;;11.10;64.59;102589.28;5042125;28;46214;-72
2022/03/22 01:46:24;;;;;;;;;19.00;15.00;;;;;11.06;64.24;102592.84;5045589;28;45307;-72
2022/03/22 01:48:50;;;;;;;;;23.00;18.75;;;;;11.03;64.36;102579.75;5056664;28;48028;-72
2022/03/22 01:51:17;;;;;;;;;20.00;16.25;;;;;11.02;64.78;102579.78;5054595;28;45764;-72
2022/03/22 01:53:45;;;;;;;;;28.25;19.75;;;;;11.00;64.78;102579.78;5055549;27;45450;-72
2022/03/22 01:56:11;;;;;;;;;24.75;19.75;;;;;10.94;64.83;102577.25;5056462;28;45883;-72
2022/03/22 01:58:36;;;;;;;;;22.25;20.00;;;;;10.94;64.61;102579.88;5056617;28;45468;-72
2022/03/22 02:06:35;;;;;;;;;21.00;21.00;;;;;10.82;65.33;102578.31;5056854;28;45990;-72
2022/03/22 02:09:00;;;;;;;;;24.50;21.00;;;;;10.80;65.52;102576.56;5040583;28;45421;-72
2022/03/22 02:11:26;;;;;;;;;21.75;18.75;;;;;10.76;65.82;102567.88;5057364;28;45248;-72
2022/03/22 02:13:51;;;;;;;;;25.75;21.00;;;;;10.70;65.49;102568.84;5056247;28;45956;-72
2022/03/22 02:16:16;;;;;;;;;18.33;16.67;;;;;10.70;65.86;102573.19;5047034;28;58957;-72
2022/03/22 02:18:42;;;;;;;;;21.50;18.50;;;;;10.68;65.83;102570.59;5052924;28;45422;-72
2022/03/22 02:21:09;;;;;;;;;24.50;21.00;;;;;10.66;65.80;102572.41;5041617;28;45450;-72
2022/03/22 02:23:50;;;;;;;;;18.50;18.25;;;;;10.64;66.04;102574.16;5052978;28;47082;-72
2022/03/22 02:26:17;;;;;;;;;25.50;21.25;;;;;10.62;66.13;102569.81;5041208;28;45937;-72
2022/03/22 02:28:43;;;;;;;;;22.75;20.00;;;;;10.58;66.00;102571.63;5045092;28;45574;-72
2022/03/22 02:31:09;;;;;;;;;21.50;17.25;;;;;10.57;65.92;102567.25;5044701;28;45493;-72
2022/03/22 02:33:34;;;;;;;;;22.00;16.75;;;;;10.55;66.27;102570.81;5044831;28;46233;-72
2022/03/22 02:36:00;;;;;;;;;26.00;21.50;;;;;10.50;66.54;102565.63;5051520;28;45670;-72
2022/03/22 02:38:26;;;;;;;;;21.75;19.25;;;;;10.46;66.58;102558.66;5056933;28;45459;-72
2022/03/22 02:40:51;;;;;;;;;23.50;18.75;;;;;10.49;66.82;102571.72;5055792;28;45476;-72
2022/03/22 02:43:17;;;;;;;;;23.25;19.50;;;;;10.49;66.78;102568.25;5048647;28;45265;-72
2022/03/22 02:45:42;;;;;;;;;21.25;17.75;;;;;10.44;66.68;102561.31;5044106;28;45428;-72
2022/03/22 02:48:07;;;;;;;;;26.25;20.50;;;;;10.46;66.96;102574.41;5041542;28;45806;-72
2022/03/22 02:50:33;;;;;;;;;22.00;17.00;;;;;10.43;66.70;102570.06;5040344;28;45313;-72
2022/03/22 02:53:00;;;;;;;;;20.75;19.25;;;;;10.43;66.61;102577.06;5051286;28;46222;-72
2022/03/22 02:55:26;;;;;;;;;29.25;22.75;;;;;10.42;66.44;102578.84;5055605;28;45540;-72
2022/03/22 02:57:51;;;;;;;;;20.25;17.50;;;;;10.39;66.53;102576.28;5053693;28;45383;-72
2022/03/22 03:00:17;;;;;;;;;23.00;19.00;;;;;10.36;66.59;102581.56;5041952;28;47245;-72
2022/03/22 03:02:53;;;;;;;;;19.00;18.50;;;;;10.37;66.42;102578.03;5039617;28;46089;-72
2022/03/22 03:05:19;;;;;;;;;25.50;21.25;;;;;10.35;66.51;102584.22;5045914;28;45376;-72
2022/03/22 03:07:45;;;;;;;;;25.25;19.50;;;;;10.34;66.21;102591.22;5058756;28;45462;-72
2022/03/22 03:10:11;;;;;;;;;25.75;20.75;;;;;10.32;66.36;102582.47;5055284;28;45518;-72
2022/03/22 03:12:37;;;;;;;;;25.00;20.00;;;;;10.29;66.07;102593.03;5066292;28;45935;-72
2022/03/22 03:15:04;;;;;;;;;20.75;19.75;;;;;10.29;66.32;102592.16;5055325;28;45447;-72
2022/03/22 03:17:29;;;;;;;;;23.25;19.25;;;;;10.27;66.00;102589.53;5052525;28;45522;-72
2022/03/22 03:19:55;;;;;;;;;26.25;15.75;;;;;10.25;66.44;102595.72;5055408;28;45832;-72
2022/03/22 03:22:20;;;;;;;;;26.50;18.75;;;;;10.22;66.23;102587.81;5054934;28;45371;-72
2022/03/22 03:24:46;;;;;;;;;29.50;19.25;;;;;10.20;66.12;102593.09;5053953;28;45560;-72
2022/03/22 03:27:11;;;;;;;;;24.00;18.75;;;;;10.20;66.40;102593.09;5040337;28;45554;-72
2022/03/22 03:29:36;;;;;;;;;19.25;18.00;;;;;10.14;66.26;102588.78;5038803;28;45477;-72
2022/03/22 03:32:02;;;;;;;;;19.50;18.00;;;;;10.15;66.71;102601.03;5043846;28;45359;-72
2022/03/22 03:34:28;;;;;;;;;19.25;17.75;;;;;10.12;66.62;102603.69;5044942;28;45433;-72
2022/03/22 03:36:53;;;;;;;;;22.25;18.75;;;;;10.09;66.42;102601.09;5055373;28;45676;-72
2022/03/22 03:39:18;;;;;;;;;25.75;19.75;;;;;10.05;67.17;102598.53;5054985;28;45534;-72
2022/03/22 03:42:00;;;;;;;;;19.50;18.50;;;;;10.03;67.11;102595.06;5065769;28;45844;-72
2022/03/22 03:47:16;;;;;;;;;26.00;19.25;;;;;9.99;67.00;102598.59;5054093;28;45317;-72
2022/03/22 03:49:46;;;;;;;;;23.50;21.25;;;;;9.97;66.86;102590.75;5054597;28;45462;-72
2022/03/22 03:52:18;;;;;;;;;23.00;20.75;;;;;9.97;67.38;102596.00;5054671;28;46271;-72
2022/03/22 03:54:44;;;;;;;;;26.00;23.75;;;;;9.94;66.84;102598.66;5054673;28;45927;-72
2022/03/22 03:57:10;;;;;;;;;23.25;20.75;;;;;9.93;67.08;102599.53;5054493;28;45332;-72
2022/03/22 03:59:37;;;;;;;;;19.00;18.50;;;;;9.90;67.05;102605.69;5055477;28;45537;-72
2022/03/22 04:02:03;;;;;;;;;21.00;18.00;;;;;9.90;66.93;102610.06;5055041;28;46325;-72
2022/03/22 04:04:28;;;;;;;;;22.75;20.00;;;;;9.89;67.45;102605.69;5048636;28;46026;-72
2022/03/22 04:06:54;;;;;;;;;23.00;19.50;;;;;9.88;67.30;102611.84;5054829;28;45411;-72
2022/03/22 04:09:20;;;;;;;;;32.00;20.50;;;;;9.87;67.35;102615.38;5054216;28;45290;-72
2022/03/22 04:11:45;;;;;;;;;25.25;19.75;;;;;9.85;66.73;102617.97;5064860;28;46074;-72
2022/03/22 04:14:11;;;;;;;;;29.75;21.25;;;;;9.84;67.33;102620.63;5055112;28;45475;-72
2022/03/22 04:16:37;;;;;;;;;21.00;19.25;;;;;9.81;67.18;102620.66;5046339;28;45489;-72
2022/03/22 04:19:04;;;;;;;;;26.00;19.50;;;;;9.79;67.13;102619.81;5042654;28;45328;-72
2022/03/22 04:21:29;;;;;;;;;22.75;19.00;;;;;9.76;67.40;102615.47;5042272;28;46460;-72
2022/03/22 04:23:55;;;;;;;;;24.50;22.50;;;;;9.73;67.11;102626.00;5038617;28;45409;-72
2022/03/22 04:26:20;;;;;;;;;23.00;18.50;;;;;9.71;66.78;102619.00;5040619;28;45530;-72
2022/03/22 04:34:13;;;;;;;;;27.00;21.75;;;;;9.67;66.97;102626.91;5043152;28;45943;-72
2022/03/22 04:36:38;;;;;;;;;27.75;20.75;;;;;9.65;66.65;102620.78;5053795;28;45484;-72
2022/03/22 04:39:04;;;;;;;;;20.00;17.33;;;;;9.64;66.63;102631.31;5054104;28;48003;-72
2022/03/22 04:41:29;;;;;;;;;22.00;18.25;;;;;9.64;66.42;102632.19;5053903;28;45428;-72
2022/03/22 04:43:55;;;;;;;;;24.75;19.00;;;;;9.62;66.42;102635.72;5043262;28;45329;-72
2022/03/22 04:46:20;;;;;;;;;26.25;19.50;;;;;9.58;66.74;102634.00;5042908;28;45336;-72
2022/03/22 04:48:45;;;;;;;;;22.25;19.75;;;;;9.58;66.80;102628.75;5042841;28;45391;-72
2022/03/22 04:56:51;;;;;;;;;23.25;19.00;;;;;9.53;66.70;102636.66;4990425;28;45510;-72
2022/03/22 04:59:24;;;;;;;;;23.75;19.25;;;;;9.53;66.71;102639.28;4988470;28;45530;-72
2022/03/22 05:01:51;;;;;;;;;21.00;19.50;;;;;9.52;66.45;102637.53;4987525;28;46280;-72
2022/03/22 05:04:17;;;;;;;;;25.25;20.25;;;;;9.52;66.63;102639.31;4986573;28;45840;-72
2022/03/22 05:06:42;;;;;;;;;24.00;18.75;;;;;9.51;66.50;102643.69;4992908;28;45577;-72
2022/03/22 05:09:10;;;;;;;;;23.50;20.25;;;;;9.50;66.39;102644.56;4991462;28;45652;-72
2022/03/22 05:11:36;;;;;;;;;28.00;23.00;;;;;9.49;66.11;102648.06;5000741;28;46966;-72
2022/03/22 05:14:02;;;;;;;;;22.00;19.25;;;;;9.52;65.63;102648.03;4987658;28;45480;-72
2022/03/22 05:16:29;;;;;;;;;28.75;23.00;;;;;9.50;66.06;102644.56;4987592;28;46019;-72
2022/03/22 05:18:56;;;;;;;;;22.25;19.00;;;;;9.51;66.08;102651.56;4987754;28;45615;-72
2022/03/22 05:21:21;;;;;;;;;22.75;19.00;;;;;9.51;65.59;102653.31;4989168;28;47062;-72
2022/03/22 05:23:47;;;;;;;;;20.75;16.75;;;;;9.53;64.98;102649.78;4989812;28;46364;-72
2022/03/22 05:26:13;;;;;;;;;23.50;15.00;;;;;9.56;65.39;102651.53;4990018;28;45492;-72
2022/03/22 05:28:43;;;;;;;;;22.75;20.75;;;;;9.58;65.19;102661.13;4987500;28;45551;-72
2022/03/22 05:31:10;;;;;;;;;23.75;20.00;;;;;9.60;64.46;102663.72;4993568;28;46112;-72
2022/03/22 05:33:38;;;;;;;;;26.75;22.75;;;;;9.60;64.10;102661.09;5033788;28;45526;-73
2022/03/22 05:36:05;;;;;;;;;29.50;23.75;;;;;9.63;64.14;102659.31;5051443;28;45229;-73
2022/03/22 05:38:31;;;;;;;;;30.75;26.00;;;;;9.67;63.73;102661.03;5042445;28;45811;-68
2022/03/22 05:40:56;;;;;;;;;34.75;24.25;;;;;9.67;63.50;102671.53;5053199;28;46298;-72
2022/03/22 05:43:22;;;;;;;;;29.00;25.50;;;;;9.70;63.48;102668.00;5054032;28;45456;-72
2022/03/22 05:45:51;;;;;;;;;32.25;23.00;;;;;9.72;63.10;102666.25;5052315;28;46649;-72
2022/03/22 05:48:20;;;;;;;;;35.25;24.25;;;;;9.74;63.09;102679.38;5056602;28;45648;-72
2022/03/22 05:50:46;;;;;;;;;36.00;26.00;;;;;9.75;63.42;102675.84;5054065;28;45616;-72
2022/03/22 05:53:13;;;;;;;;;33.50;25.00;;;;;9.75;62.85;102674.09;5044950;28;45385;-71
2022/03/22 05:55:39;;;;;;;;;36.00;29.25;;;;;9.76;62.66;102683.75;5048333;28;45684;-71
2022/03/22 05:58:06;;;;;;;;;34.00;26.00;;;;;9.79;62.76;102690.69;5055655;28;45340;-71
2022/03/22 06:00:32;;;;;;;;;31.00;24.50;;;;;9.80;62.14;102693.31;5056239;28;46132;-70
2022/03/22 06:02:58;;;;;;;;;29.25;22.00;;;;;9.82;62.26;102698.56;5055742;28;45618;-71
2022/03/22 06:05:23;;;;;;;;;27.00;23.75;;;;;9.84;62.41;102699.41;5054036;28;45428;-71
2022/03/22 06:07:48;;;;;;;;;33.50;26.75;;;;;9.86;62.13;102703.75;5045795;28;45314;-72
2022/03/22 06:10:14;;;;;;;;;31.25;22.50;;;;;9.89;62.02;102702.88;5049771;28;45925;-71
2022/03/22 06:12:44;;;;;;;;;30.00;23.50;;;;;9.94;62.25;102708.97;5045176;28;45270;-72
2022/03/22 06:15:18;;;;;;;;;29.00;20.25;;;;;9.98;62.08;102708.06;5053664;28;45407;-72
2022/03/22 06:17:46;;;;;;;;;22.50;22.50;;;;;10.03;61.33;102705.38;5054174;28;45398;-72
2022/03/22 06:20:11;;;;;;;;;29.75;25.00;;;;;10.06;61.28;102710.59;5056643;28;46290;-70
2022/03/22 06:22:37;;;;;;;;;32.00;23.75;;;;;10.10;61.08;102709.69;5055464;28;45408;-70
2022/03/22 06:25:03;;;;;;;;;29.00;27.25;;;;;10.15;60.86;102715.78;5055676;28;47305;-71
2022/03/22 06:27:28;;;;;;;;;35.25;27.75;;;;;10.19;60.99;102718.34;5055861;28;45290;-71
2022/03/22 06:29:54;;;;;;;;;26.75;23.00;;;;;10.25;61.01;102721.84;5048243;28;45498;-71
2022/03/22 06:32:19;;;;;;;;;27.75;21.50;;;;;10.32;60.36;102718.25;5052418;28;50718;-70
2022/03/22 06:34:47;;;;;;;;;28.25;27.00;;;;;10.39;60.29;102719.97;5050958;28;45581;-70
2022/03/22 06:37:13;;;;;;;;;34.50;29.00;;;;;10.45;60.01;102726.00;5050070;28;45399;-71
2022/03/22 06:39:38;;;;;;;;;32.00;25.50;;;;;10.50;60.04;102722.47;5054360;28;47366;-71
2022/03/22 06:42:04;;;;;;;;;31.25;26.25;;;;;10.57;59.72;102725.00;5070318;28;47829;-71
2022/03/22 06:44:30;;;;;;;;;30.50;26.50;;;;;10.59;59.17;102723.22;5057127;28;45327;-70
2022/03/22 06:46:55;;;;;;;;;26.25;25.75;;;;;10.70;59.61;102731.88;5055707;28;45659;-71
2022/03/22 06:49:23;;;;;;;;;20.75;15.25;;;;;10.77;59.09;102727.41;5055423;28;46026;-71
2022/03/22 06:51:49;;;;;;;;;29.00;25.00;;;;;10.83;58.84;102726.47;5053635;28;45348;-71
2022/03/22 06:54:14;;;;;;;;;31.75;26.75;;;;;10.91;58.82;102728.13;5041933;28;45482;-71
2022/03/22 06:56:40;;;;;;;;;38.00;27.75;;;;;11.02;59.06;102732.38;5040023;28;45538;-71
2022/03/22 06:59:05;;;;;;;;;30.75;23.50;;;;;11.12;57.86;102731.34;5043819;28;45947;-71
2022/03/22 07:01:31;;;;;;;;;36.50;27.00;;;;;11.22;57.86;102727.69;5045622;28;45583;-71
2022/03/22 07:03:57;;;;;;;;;34.75;27.75;;;;;11.34;57.35;102731.94;5044458;28;45518;-71
2022/03/22 07:06:22;;;;;;;;;33.00;27.75;;;;;11.43;57.55;102726.50;5047637;28;46067;-71
2022/03/22 07:08:48;;;;;;;;;32.25;27.00;;;;;11.55;57.33;102736.00;5055837;28;45485;-71
2022/03/22 07:13:57;;;;;;;;;29.25;27.50;;;;;11.76;56.78;102736.53;5051237;28;45532;-71
2022/03/22 07:16:24;;;;;;;;;29.00;21.75;;;;;11.92;56.20;102738.97;5055411;28;45352;-72
2022/03/22 07:18:50;;;;;;;;;31.00;26.25;;;;;12.01;56.06;102733.56;5055638;28;46960;-72
2022/03/22 07:21:15;;;;;;;;;38.00;26.75;;;;;12.24;55.70;102741.91;5055102;28;45472;-72
2022/03/22 07:23:41;;;;;;;;;31.50;24.00;;;;;12.47;55.69;102736.19;5055727;28;45417;-72
2022/03/22 07:26:06;;;;;;;;;25.75;22.25;;;;;12.69;55.16;102744.59;5056108;28;45395;-72
2022/03/22 07:28:31;;;;;;;;;24.00;22.75;;;;;12.83;54.47;102739.03;5055307;28;45327;-72
2022/03/22 07:30:57;;;;;;;;;28.00;22.50;;;;;13.00;53.87;102733.41;5053876;28;45390;-72
2022/03/22 07:33:22;;;;;;;;;41.25;33.00;;;;;13.21;53.56;102740.91;5055363;28;45388;-73
2022/03/22 07:35:48;;;;;;;;;40.25;29.75;;;;;13.44;53.49;102734.22;5054986;28;45375;-73
2022/03/22 07:38:13;;;;;;;;;42.75;30.50;;;;;13.73;52.55;102737.06;5055706;28;45944;-73
2022/03/22 07:40:39;;;;;;;;;32.25;24.00;;;;;13.94;51.90;102737.41;5046371;28;46996;-73
2022/03/22 07:43:05;;;;;;;;;34.50;25.50;;;;;14.06;51.61;102751.22;5055337;28;45399;-73
2022/03/22 07:45:30;;;;;;;;;26.75;25.75;;;;;14.20;51.24;102749.97;5055177;28;45377;-73
2022/03/22 07:47:55;;;;;;;;;34.00;28.25;;;;;14.35;50.39;102742.53;5054945;28;45250;-73
2022/03/22 07:53:08;;;;;;;;;33.75;26.25;;;;;14.91;49.71;102748.94;5053932;28;45416;-71
2022/03/22 07:55:38;;;;;;;;;34.00;26.50;;;;;15.42;49.61;102746.50;5054981;28;45569;-72
2022/03/22 07:58:08;;;;;;;;;32.75;25.25;;;;;15.85;48.81;102746.03;5054857;28;45415;-72
2022/03/22 08:00:35;;;;;;;;;33.00;28.00;;;;;16.20;47.85;102751.94;5053685;28;45941;-71
2022/03/22 08:03:03;;;;;;;;;35.75;29.25;;;;;16.63;47.41;102743.31;5039150;28;45288;-72
2022/03/22 08:05:30;;;;;;;;;30.50;25.50;;;;;18.02;47.65;102741.50;5054889;28;45285;-72
2022/03/22 08:07:56;;;;;;;;;38.00;29.50;;;;;19.16;45.47;102733.72;5054440;28;46415;-72
2022/03/22 08:10:23;;;;;;;;;34.75;25.00;;;;;19.54;43.57;102736.31;5054486;28;45427;-72
2022/03/22 08:12:48;;;;;;;;;27.50;25.50;;;;;19.51;43.25;102729.31;5054722;28;45336;-72
2022/03/22 08:15:15;;;;;;;;;26.25;23.00;;;;;19.63;42.02;102737.69;5054936;28;45612;-72
2022/03/22 08:17:41;;;;;;;;;26.25;22.75;;;;;19.68;41.60;102733.88;5054610;28;46213;-72
2022/03/22 08:20:09;;;;;;;;;24.25;21.75;;;;;19.68;40.37;102741.00;5054837;28;45487;-73
2022/03/22 08:23:03;;;;;;;;;28.50;24.75;;;;;19.73;40.76;102736.28;5057734;27;45364;-73
2022/03/22 08:25:30;;;;;;;;;27.25;20.75;;;;;20.54;38.88;102734.84;5048397;28;45429;-73
2022/03/22 08:27:57;;;;;;;;;21.00;17.00;;;;;21.21;38.10;102735.63;5043087;28;46214;-74
2022/03/22 08:30:23;;;;;;;;;25.75;19.75;;;;;21.89;38.03;102738.84;5041131;28;45850;-72
2022/03/22 08:32:50;;;;;;;;;26.50;19.75;;;;;23.17;36.38;102738.97;5037061;28;45828;-73
2022/03/22 08:35:17;;;;;;;;;22.25;22.00;;;;;24.12;35.63;102742.59;5054429;28;45463;-72
2022/03/22 08:37:42;;;;;;;;;19.75;19.00;;;;;25.03;35.09;102732.56;5052477;28;46726;-72
2022/03/22 08:40:09;;;;;;;;;26.25;23.50;;;;;26.70;33.96;102738.75;5053540;28;45462;-70
2022/03/22 08:42:37;;;;;;;;;26.00;21.25;;;;;27.54;32.11;102734.59;5053173;28;45984;-72
2022/03/22 08:45:06;;;;;;;;;26.25;25.75;;;;;28.60;30.71;102734.50;5042151;28;45881;-72
2022/03/22 08:47:33;;;;;;;;;18.75;18.50;;;;;29.66;29.75;102747.50;5050327;28;45364;-70
2022/03/22 08:49:58;;;;;;;;;23.75;17.50;;;;;30.41;28.40;102754.00;5053917;28;45450;-70
2022/03/22 08:52:24;;;;;;;;;25.25;17.50;;;;;30.98;27.12;102753.94;5054052;28;45458;-72
2022/03/22 08:54:51;;;;;;;;;17.75;16.25;;;;;31.94;26.66;102750.53;5054230;28;45466;-72
2022/03/22 08:57:17;;;;;;;;;19.25;16.50;;;;;33.02;25.91;102747.47;5053801;28;46230;-71
2022/03/22 08:59:43;;;;;;;;;20.75;19.00;;;;;34.13;25.63;102748.81;5046312;28;50294;-71
2022/03/22 09:02:09;;;;;;;;;22.75;19.75;;;;;35.02;23.56;102755.91;5054222;28;45399;-71
2022/03/22 09:07:18;;;;;;;;;20.75;19.00;;;;;35.24;22.09;102761.59;5056196;28;45393;-72
2022/03/22 09:09:43;;;;;;;;;18.50;16.50;;;;;35.38;20.57;102758.06;5057369;28;45424;-71
2022/03/22 09:12:09;;;;;;;;;17.00;17.00;;;;;35.60;20.90;102750.09;5057162;28;46525;-71
2022/03/22 09:14:34;;;;;;;;;15.25;14.25;;;;;35.77;20.44;102751.66;5050274;28;45675;-71
2022/03/22 09:17:00;;;;;;;;;17.75;12.75;;;;;36.26;19.48;102741.13;5054843;28;46027;-72
2022/03/22 09:19:25;;;;;;;;;16.00;16.00;;;;;36.98;20.15;102747.84;5055041;28;45500;-71
2022/03/22 09:21:51;;;;;;;;;19.50;17.00;;;;;38.10;18.95;102743.44;5055588;28;47229;-72
2022/03/22 09:24:16;;;;;;;;;21.00;19.50;;;;;38.67;17.96;102751.63;5053414;28;45577;-72
2022/03/22 09:26:41;;;;;;;;;19.75;15.00;;;;;38.68;18.02;102756.06;5051080;28;46700;-72
2022/03/22 09:29:07;;;;;;;;;17.00;17.00;;;;;39.05;18.00;102758.38;5054096;28;45345;-72
2022/03/22 09:31:33;;;;;;;;;18.25;15.50;;;;;39.26;17.70;102757.41;5056562;28;45801;-72
2022/03/22 09:34:00;;;;;;;;;15.75;14.75;;;;;39.70;17.35;102752.41;5056961;28;45580;-71
2022/03/22 09:36:25;;;;;;;;;19.25;17.00;;;;;39.66;16.51;102752.81;5056484;28;46375;-71
2022/03/22 09:38:51;;;;;;;;;15.50;14.50;;;;;39.62;15.64;102750.66;5055362;28;45266;-70
2022/03/22 09:41:16;;;;;;;;;20.50;19.00;;;;;39.46;16.48;102764.84;5055771;28;45468;-71
2022/03/22 09:43:47;;;;;;;;;18.00;17.00;;;;;39.57;15.63;102755.94;5053982;28;45690;-71
2022/03/22 09:46:18;;;;;;;;;20.50;20.00;;;;;39.42;16.41;102764.44;5051247;28;46422;-70
2022/03/22 09:48:44;;;;;;;;;18.25;15.75;;;;;39.74;15.90;102760.03;5056081;28;45722;-71
2022/03/22 09:53:53;;;;;;;;;16.25;15.50;;;;;39.14;15.30;102750.78;5053596;28;45388;-71
2022/03/22 09:56:20;;;;;;;;;20.25;19.25;;;;;38.06;15.83;102741.34;5055633;28;46446;-70
2022/03/22 09:58:45;;;;;;;;;17.00;16.00;;;;;37.50;16.93;102758.56;5054828;28;45847;-71
2022/03/22 10:01:11;;;;;;;;;19.75;18.00;;;;;36.91;16.74;102735.91;5056229;28;45569;-71
2022/03/22 10:03:37;;;;;;;;;20.75;18.50;;;;;36.77;16.64;102743.13;5055886;28;45744;-71
2022/03/22 10:06:05;;;;;;;;;23.25;18.00;;;;;36.61;17.27;102740.59;5056188;28;46276;-72
2022/03/22 10:08:31;;;;;;;;;15.75;14.75;;;;;36.16;16.49;102742.44;5043958;28;45555;-72
2022/03/22 10:11:00;;;;;;;;;80.25;73.00;;;;;35.87;16.80;102737.75;5052954;28;45958;-71
2022/03/22 10:13:27;;;;;;;;;18.00;16.00;;;;;35.41;16.69;102744.06;5054377;28;45579;-72
2022/03/22 10:16:03;;;;;;;;;14.00;12.75;;;;;34.90;16.64;102735.44;5054483;28;46302;-73
2022/03/22 10:18:29;;;;;;;;;14.00;13.25;;;;;34.59;16.43;102737.28;5047297;28;45323;-72
2022/03/22 10:21:00;;;;;;;;;10.50;10.50;;;;;34.24;16.88;102731.22;5050472;28;45581;-73
2022/03/22 10:23:26;;;;;;;;;17.50;13.25;;;;;34.07;16.83;102732.28;5055919;28;45540;-72
2022/03/22 10:26:02;;;;;;;;;18.50;15.00;;;;;33.83;17.04;102727.66;5060448;28;48155;-71
2022/03/22 10:28:27;;;;;;;;;20.75;18.25;;;;;33.84;16.77;102727.50;5051746;28;45349;-71
2022/03/22 10:30:57;;;;;;;;;17.25;14.50;;;;;33.73;16.14;102725.13;5053869;28;45285;-71
2022/03/22 10:33:23;;;;;;;;;15.25;15.25;;;;;33.33;16.90;102726.75;5046173;28;45838;-71
2022/03/22 10:35:48;;;;;;;;;19.25;15.75;;;;;32.92;17.29;102723.94;5053339;28;45782;-71
2022/03/22 10:38:15;;;;;;;;;18.50;15.75;;;;;32.87;16.69;102718.09;5049744;28;45522;-71
2022/03/22 10:40:47;;;;;;;;;19.00;18.50;;;;;32.92;16.81;102715.75;5050460;28;45500;-71
2022/03/22 10:43:38;;;;;;;;;16.75;16.75;;;;;32.59;17.46;102720.22;5049830;28;45376;-71
2022/03/22 10:46:05;;;;;;;;;23.50;17.25;;;;;32.09;18.16;102722.78;5043142;28;46236;-71
2022/03/22 10:48:34;;;;;;;;;21.75;19.50;;;;;31.64;17.57;102721.03;5048384;28;45669;-71
2022/03/22 10:51:01;;;;;;;;;18.50;14.50;;;;;31.02;18.01;102717.31;5044063;27;45498;-71
2022/03/22 10:53:29;;;;;;;;;18.25;16.25;;;;;30.56;18.77;102711.81;5051393;28;45522;-70
2022/03/22 10:55:57;;;;;;;;;16.50;16.50;;;;;30.26;19.07;102710.19;5050721;28;46208;-71
2022/03/22 10:58:25;;;;;;;;;18.00;15.75;;;;;29.78;19.19;102711.13;5050563;28;45539;-71
2022/03/22 11:00:52;;;;;;;;;18.25;17.25;;;;;29.51;19.06;102710.97;5051933;28;45779;-71
2022/03/22 11:03:18;;;;;;;;;18.00;17.50;;;;;29.19;19.43;102714.78;5050374;28;45420;-72
2022/03/22 11:05:50;;;;;;;;;20.50;19.00;;;;;28.90;19.35;102703.00;5051747;28;46423;-71
2022/03/22 11:08:23;;;;;;;;;15.25;14.25;;;;;28.77;20.36;102708.66;5041465;28;45687;-71
2022/03/22 11:10:51;;;;;;;;;24.75;21.25;;;;;28.32;19.87;102701.75;5052687;28;45426;-72
2022/03/22 11:13:16;;;;;;;;;20.00;16.50;;;;;27.88;19.90;102702.03;5047403;28;45759;-71
2022/03/22 11:15:45;;;;;;;;;21.25;17.25;;;;;27.62;20.11;102706.94;5048393;28;48142;-72
2022/03/22 11:18:13;;;;;;;;;16.00;16.00;;;;;27.22;20.12;102700.31;5046092;28;45784;-71
2022/03/22 11:20:48;;;;;;;;;22.75;20.25;;;;;27.00;20.86;102703.03;5050351;28;45520;-72
2022/03/22 11:23:18;;;;;;;;;23.00;19.75;;;;;26.86;20.87;102703.31;5056876;28;45382;-72
2022/03/22 11:25:43;;;;;;;;;17.50;16.00;;;;;26.50;21.02;102700.75;5051755;27;46082;-71
2022/03/22 11:28:12;;;;;;;;;20.25;18.00;;;;;26.22;21.15;102701.19;5049160;28;46203;-71
2022/03/22 11:30:39;;;;;;;;;20.50;17.50;;;;;26.07;21.12;102694.31;5049934;28;45635;-70
2022/03/22 11:36:10;;;;;;;;;20.50;19.50;;;;;25.71;21.75;102688.91;5050146;28;45875;-70
2022/03/22 11:38:38;;;;;;;;;19.25;16.25;;;;;25.61;21.83;102690.56;5055574;28;45414;-69
2022/03/22 11:43:48;;;;;;;;;17.00;15.00;;;;;25.42;21.58;102682.16;5049557;28;45624;-69
2022/03/22 11:46:14;;;;;;;;;12.75;10.75;;;;;25.19;22.18;102679.38;5051752;28;46122;-70